Time;durP1;ratioP1;P1;durP2;ratioP2;P2;SDS_P1;SDS_P2;PMS_P1;PMS_P2;Temp;Humidity;BMP_temperature;BMP_pressure;BME280_temperature;BME280_humidity;BME280_pressure;Samples;Min_cycle;Max_cycle;Signal;HPM_P1;HPM_P2
2022/09/22 00:01:10;;;;;;;2.80;1.58;;;;;;;8.04;67.58;99640.28;4918610;29;20079;-66
2022/09/22 00:03:42;;;;;;;2.15;1.75;;;;;;;7.98;67.61;99640.06;4918475;29;20044;-66
2022/09/22 00:06:16;;;;;;;2.85;2.13;;;;;;;7.92;67.86;99636.25;4932657;29;20055;-65
2022/09/22 00:08:47;;;;;;;1.63;1.35;;;;;;;7.88;68.15;99640.19;4918634;29;20048;-65
2022/09/22 00:11:17;;;;;;;1.52;1.42;;;;;;;7.85;68.27;99633.41;4918700;29;20052;-66
2022/09/22 00:13:50;;;;;;;1.98;1.48;;;;;;;7.86;68.34;99634.22;4933060;29;20044;-65
2022/09/22 00:16:22;;;;;;;1.42;1.30;;;;;;;7.85;68.28;99636.03;4917839;29;20095;-67
2022/09/22 00:18:49;;;;;;;1.83;1.65;;;;;;;7.86;68.58;99632.41;4933083;29;20055;-67
2022/09/22 00:21:18;;;;;;;2.15;1.70;;;;;;;7.85;68.20;99629.97;4933023;29;20051;-67
2022/09/22 00:23:48;;;;;;;1.52;1.23;;;;;;;7.83;68.15;99627.47;4918289;29;20048;-67
2022/09/22 00:26:20;;;;;;;2.15;1.80;;;;;;;7.81;68.40;99631.25;4932169;29;20048;-67
2022/09/22 00:28:48;;;;;;;1.55;1.40;;;;;;;7.76;68.48;99626.44;4916968;29;20055;-67
2022/09/22 00:31:23;;;;;;;1.75;1.45;;;;;;;7.75;68.59;99634.47;4918118;29;20095;-65
2022/09/22 00:33:52;;;;;;;1.75;1.50;;;;;;;7.73;68.60;99633.81;4918193;29;20052;-67
2022/09/22 00:36:21;;;;;;;1.65;1.40;;;;;;;7.72;68.56;99634.81;4931752;29;20047;-67
2022/09/22 00:38:50;;;;;;;2.33;1.50;;;;;;;7.68;68.39;99636.91;4916700;29;20052;-65
2022/09/22 00:41:22;;;;;;;2.30;1.38;;;;;;;7.62;68.49;99627.81;4932455;29;20115;-65
2022/09/22 00:44:11;;;;;;;2.42;1.90;;;;;;;7.56;68.40;99631.06;4932526;29;20051;-65
2022/09/22 00:46:40;;;;;;;2.00;1.80;;;;;;;7.52;68.68;99634.16;4917004;29;20044;-67
2022/09/22 00:49:08;;;;;;;3.25;1.80;;;;;;;7.49;68.94;99637.91;4917649;29;20051;-66
2022/09/22 00:51:38;;;;;;;1.65;1.25;;;;;;;7.48;69.05;99633.63;4916726;29;20082;-66
2022/09/22 00:54:10;;;;;;;1.40;1.30;;;;;;;7.51;69.30;99627.22;4917492;29;20103;-66
2022/09/22 00:56:54;;;;;;;1.55;0.90;;;;;;;7.52;69.70;99629.72;4931522;29;20107;-66
2022/09/22 00:59:24;;;;;;;0.95;0.93;;;;;;;7.53;69.02;99634.00;4917566;29;20044;-66
2022/09/22 01:01:51;;;;;;;1.02;0.90;;;;;;;7.53;69.08;99627.91;4900239;29;20052;-65
2022/09/22 01:04:18;;;;;;;2.55;1.50;;;;;;;7.49;68.29;99629.19;4917449;29;20493;-66
2022/09/22 01:06:45;;;;;;;1.50;1.40;;;;;;;7.42;68.61;99632.41;4916725;29;20040;-66
2022/09/22 01:09:12;;;;;;;3.88;1.50;;;;;;;7.39;68.94;99638.00;4916300;29;20056;-66
2022/09/22 01:11:40;;;;;;;3.28;1.50;;;;;;;7.36;68.82;99632.22;4931993;29;20103;-66
2022/09/22 01:14:27;;;;;;;1.98;1.50;;;;;;;7.32;68.85;99629.06;4931861;29;20080;-65
2022/09/22 01:17:07;;;;;;;2.60;1.52;;;;;;;7.30;68.76;99627.56;4916388;29;20048;-66
2022/09/22 01:19:42;;;;;;;1.40;1.30;;;;;;;7.29;69.50;99625.91;4915947;29;20060;-66
2022/09/22 01:22:47;;;;;;;1.70;1.25;;;;;;;7.27;68.89;99620.00;4932159;29;20056;-65
2022/09/22 01:25:28;;;;;;;;;;;;;;;7.24;69.19;99629.00;4932278;29;20135;-66
2022/09/22 01:27:57;;;;;;;1.38;1.25;;;;;;;7.24;69.05;99628.16;4931045;29;20372;-66
2022/09/22 01:30:35;;;;;;;1.75;1.20;;;;;;;7.22;68.97;99636.19;4915771;29;20464;-66
2022/09/22 01:33:18;;;;;;;1.20;1.02;;;;;;;7.18;69.22;99626.94;4931593;29;20063;-66
2022/09/22 01:36:01;;;;;;;1.10;1.00;;;;;;;7.15;69.54;99622.84;4916662;29;20044;-66
2022/09/22 01:38:35;;;;;;;1.05;0.70;;;;;;;7.17;69.76;99615.59;4915070;29;20056;-66
2022/09/22 01:41:32;;;;;;;1.23;1.13;;;;;;;7.19;69.25;99618.09;4900030;29;20048;-66
2022/09/22 01:44:06;;;;;;;1.92;1.17;;;;;;;7.20;69.34;99614.50;4906117;29;20067;-66
2022/09/22 01:46:41;;;;;;;1.20;1.10;;;;;;;7.20;69.31;99610.06;4930659;29;20052;-66
2022/09/22 01:49:13;;;;;;;2.08;1.13;;;;;;;7.22;69.54;99606.44;4916771;29;20116;-66
2022/09/22 01:51:46;;;;;;;1.30;1.20;;;;;;;7.20;69.07;99611.88;4931127;29;20115;-65
2022/09/22 01:54:23;;;;;;;3.67;1.52;;;;;;;7.13;68.57;99608.19;4916541;29;20048;-65
2022/09/22 01:56:57;;;;;;;1.63;1.38;;;;;;;7.05;68.81;99606.28;4914756;29;20453;-66
2022/09/22 01:59:29;;;;;;;2.05;1.60;;;;;;;6.97;68.94;99608.84;4931118;29;20048;-66
2022/09/22 02:02:01;;;;;;;2.45;1.60;;;;;;;6.90;68.74;99613.91;4916603;29;20048;-66
2022/09/22 02:04:40;;;;;;;1.85;1.60;;;;;;;6.85;69.17;99604.78;4930934;29;20076;-66
2022/09/22 02:07:14;;;;;;;1.33;1.23;;;;;;;6.82;69.56;99610.38;4930356;29;20100;-65
2022/09/22 02:09:41;;;;;;;2.10;1.65;;;;;;;6.78;69.60;99609.84;4916499;29;20103;-65
2022/09/22 02:12:08;;;;;;;3.30;1.55;;;;;;;6.76;69.79;99606.50;4916384;29;20070;-66
2022/09/22 02:14:34;;;;;;;1.40;1.30;;;;;;;6.74;69.86;99603.22;4915647;29;20052;-66
2022/09/22 02:17:01;;;;;;;0.98;0.88;;;;;;;6.76;69.98;99610.94;4898711;29;20044;-65
2022/09/22 02:19:38;;;;;;;1.30;1.13;;;;;;;6.77;69.95;99602.06;4916227;29;20044;-66
2022/09/22 02:22:07;;;;;;;1.42;1.27;;;;;;;6.77;69.97;99604.69;4915063;29;20040;-66
2022/09/22 02:24:36;;;;;;;1.55;1.05;;;;;;;6.75;70.09;99604.88;4916176;29;20108;-66
2022/09/22 02:27:17;;;;;;;1.20;1.10;;;;;;;6.75;69.61;99599.59;4915444;29;20040;-65
2022/09/22 02:30:11;;;;;;;2.30;1.65;;;;;;;6.74;69.34;99590.06;4916195;29;20072;-66
2022/09/22 02:32:41;;;;;;;3.15;1.52;;;;;;;6.69;69.50;99600.19;4914044;29;20052;-65
2022/09/22 02:35:08;;;;;;;2.03;1.65;;;;;;;6.63;69.47;99593.72;4915131;29;20055;-66
2022/09/22 02:37:40;;;;;;;1.60;1.40;;;;;;;6.62;69.58;99596.53;4915438;29;20047;-66
2022/09/22 02:40:26;;;;;;;1.70;1.50;;;;;;;6.59;69.47;99589.75;4930115;29;20044;-66
2022/09/22 02:43:02;;;;;;;1.30;1.20;;;;;;;6.59;70.01;99597.63;4914379;29;20094;-66
2022/09/22 02:45:36;;;;;;;1.48;1.38;;;;;;;6.61;69.80;99589.59;4935774;29;20112;-66
2022/09/22 02:48:18;;;;;;;1.30;1.20;;;;;;;6.58;69.50;99590.72;4924485;29;20117;-66
2022/09/22 02:50:45;;;;;;;1.33;1.13;;;;;;;6.55;69.74;99591.03;4924479;29;20096;-66
2022/09/22 02:53:14;;;;;;;1.33;1.23;;;;;;;6.54;69.76;99592.00;4925062;29;20051;-66
2022/09/22 02:55:42;;;;;;;2.63;1.50;;;;;;;6.52;69.69;99588.69;4924284;29;20044;-66
2022/09/22 02:58:09;;;;;;;2.13;1.30;;;;;;;6.50;69.70;99593.25;4923446;29;20044;-66
2022/09/22 03:00:39;;;;;;;1.40;1.20;;;;;;;6.48;69.56;99581.25;4923837;29;20063;-65
2022/09/22 03:03:09;;;;;;;1.40;1.30;;;;;;;6.45;69.81;99583.19;4921946;29;20072;-66
2022/09/22 03:05:37;;;;;;;1.23;1.13;;;;;;;6.45;70.06;99577.13;4937802;29;20052;-66
2022/09/22 03:08:03;;;;;;;1.00;0.90;;;;;;;6.44;70.02;99578.91;4931388;29;20048;-65
2022/09/22 03:10:30;;;;;;;2.03;1.60;;;;;;;6.44;69.83;99575.44;4915807;29;20496;-65
2022/09/22 03:12:57;;;;;;;1.67;1.40;;;;;;;6.38;69.73;99574.25;4916030;29;20457;-66
2022/09/22 03:15:42;;;;;;;2.10;1.48;;;;;;;6.32;69.70;99571.38;4914617;29;20048;-66
2022/09/22 03:18:09;;;;;;;2.80;1.50;;;;;;;6.30;70.08;99574.16;4914319;29;20044;-66
2022/09/22 03:20:35;;;;;;;2.08;1.38;;;;;;;6.30;70.19;99566.28;4930320;29;20048;-66
2022/09/22 03:23:02;;;;;;;1.88;1.52;;;;;;;6.30;70.17;99574.16;4914818;29;20044;-66
2022/09/22 03:25:28;;;;;;;1.60;1.50;;;;;;;6.31;69.93;99567.94;4916271;29;20460;-66
2022/09/22 03:27:55;;;;;;;2.90;1.73;;;;;;;6.29;70.09;99571.69;4933246;29;20067;-66
2022/09/22 03:30:22;;;;;;;2.35;1.70;;;;;;;6.26;70.03;99570.16;4919411;29;20055;-66
2022/09/22 03:32:48;;;;;;;3.95;2.38;;;;;;;6.20;69.88;99565.50;4919545;29;20103;-66
2022/09/22 03:35:15;;;;;;;1.98;1.77;;;;;;;6.13;69.79;99565.25;4919019;29;20060;-66
2022/09/22 03:37:41;;;;;;;2.70;1.80;;;;;;;6.09;69.95;99566.53;4917326;29;20076;-66
2022/09/22 03:40:08;;;;;;;2.67;1.70;;;;;;;6.07;70.06;99568.44;4918064;29;20044;-66
2022/09/22 03:42:35;;;;;;;2.25;1.55;;;;;;;6.03;70.13;99571.50;4919283;29;20051;-66
2022/09/22 03:45:03;;;;;;;1.48;1.10;;;;;;;6.02;70.42;99575.13;4918968;29;20048;-66
2022/09/22 03:47:30;;;;;;;1.80;1.27;;;;;;;6.03;70.49;99567.09;4917096;29;20052;-66
2022/09/22 03:49:56;;;;;;;2.05;1.55;;;;;;;6.02;70.43;99565.44;4918517;29;20044;-66
2022/09/22 03:52:23;;;;;;;1.50;1.10;;;;;;;6.03;70.53;99569.72;4918217;29;20453;-66
2022/09/22 03:54:51;;;;;;;1.20;1.10;;;;;;;6.06;70.33;99572.06;4918826;29;20048;-66
2022/09/22 03:57:17;;;;;;;1.13;1.05;;;;;;;6.07;70.46;99565.00;4918165;29;20401;-66
2022/09/22 03:59:44;;;;;;;1.88;1.60;;;;;;;6.07;70.21;99565.81;4918768;29;20130;-66
2022/09/22 04:02:11;;;;;;;1.52;1.42;;;;;;;6.05;70.20;99567.78;5381816;23;20056;-68
2022/09/22 04:04:38;;;;;;;6.15;2.08;;;;;;;6.03;69.93;99566.25;4936447;29;20052;-65
2022/09/22 04:07:04;;;;;;;1.70;1.60;;;;;;;6.02;69.99;99565.44;4936989;29;20044;-66
2022/09/22 04:09:33;;;;;;;2.95;1.52;;;;;;;6.02;70.02;99560.19;4936578;29;20040;-65
2022/09/22 04:12:00;;;;;;;1.67;1.30;;;;;;;6.01;69.97;99562.97;4936264;29;20052;-66
2022/09/22 04:14:26;;;;;;;1.73;1.58;;;;;;;6.00;69.98;99556.03;4936305;29;20047;-65
2022/09/22 04:16:53;;;;;;;1.98;1.35;;;;;;;6.01;70.33;99555.91;4937485;29;20491;-66
2022/09/22 04:19:20;;;;;;;1.80;1.50;;;;;;;6.01;69.99;99555.09;4937541;29;20500;-66
2022/09/22 04:21:46;;;;;;;2.03;1.40;;;;;;;5.98;70.14;99553.59;4936357;29;20411;-67
2022/09/22 04:24:13;;;;;;;2.15;1.30;;;;;;;5.98;70.22;99548.34;4937590;29;20095;-66
2022/09/22 04:26:39;;;;;;;1.92;1.50;;;;;;;5.98;70.12;99550.97;4937352;29;20500;-64
2022/09/22 04:29:26;;;;;;;1.40;1.30;;;;;;;5.96;69.89;99542.41;4942204;29;20500;-65
2022/09/22 04:31:52;;;;;;;1.65;1.50;;;;;;;5.96;70.21;99550.28;4945263;29;20128;-66
2022/09/22 04:34:19;;;;;;;1.77;1.50;;;;;;;5.95;69.81;99559.13;4944142;29;20411;-65
2022/09/22 04:36:45;;;;;;;3.13;1.90;;;;;;;5.93;69.64;99558.44;4944354;29;20035;-65
2022/09/22 04:39:12;;;;;;;1.70;1.60;;;;;;;5.89;69.76;99564.91;4944602;29;20051;-66
2022/09/22 04:41:38;;;;;;;2.22;1.40;;;;;;;5.84;69.86;99556.66;4936710;29;20512;-67
2022/09/22 04:44:05;;;;;;;1.67;1.27;;;;;;;5.81;70.06;99551.69;4936953;29;20047;-66
2022/09/22 04:46:31;;;;;;;1.50;1.40;;;;;;;5.82;70.08;99550.72;4937505;29;20051;-65
2022/09/22 04:48:58;;;;;;;1.30;1.20;;;;;;;5.82;69.95;99548.91;4936865;29;20086;-65
2022/09/22 04:51:25;;;;;;;1.65;1.40;;;;;;;5.80;70.11;99548.25;4936479;29;20044;-66
2022/09/22 04:53:51;;;;;;;1.27;1.17;;;;;;;5.81;70.14;99551.69;4938355;29;20511;-65
2022/09/22 04:56:18;;;;;;;2.30;1.83;;;;;;;5.78;69.91;99554.59;4937064;29;20047;-66
2022/09/22 04:58:45;;;;;;;1.70;1.35;;;;;;;5.74;69.91;99548.81;4936928;29;20066;-66
2022/09/22 05:01:11;;;;;;;1.40;1.30;;;;;;;5.74;69.98;99553.22;4938286;29;20047;-65
2022/09/22 05:03:38;;;;;;;1.27;1.17;;;;;;;5.72;70.11;99556.00;4942457;29;20055;-66
2022/09/22 05:06:05;;;;;;;1.75;1.42;;;;;;;5.70;70.02;99558.75;4946199;29;20111;-66
2022/09/22 05:08:32;;;;;;;1.52;1.40;;;;;;;5.69;70.04;99553.66;4946732;29;20043;-66
2022/09/22 05:10:58;;;;;;;1.23;1.13;;;;;;;5.71;70.37;99554.31;4947626;29;20051;-65
2022/09/22 05:13:25;;;;;;;1.90;1.20;;;;;;;5.74;70.18;99559.28;4945357;29;20052;-66
2022/09/22 05:15:52;;;;;;;2.80;1.42;;;;;;;5.77;70.27;99558.19;4937983;29;20466;-66
2022/09/22 05:18:19;;;;;;;1.20;1.10;;;;;;;5.78;70.42;99562.47;4937494;29;20051;-65
2022/09/22 05:20:46;;;;;;;1.40;1.10;;;;;;;5.79;70.28;99558.88;4937721;29;20056;-65
2022/09/22 05:23:12;;;;;;;1.83;1.02;;;;;;;5.82;70.25;99567.28;4937898;29;20044;-66
2022/09/22 05:25:40;;;;;;;3.95;1.88;;;;;;;5.85;70.00;99574.06;4936936;29;20051;-66
2022/09/22 05:28:07;;;;;;;5.00;2.00;;;;;;;5.86;69.94;99571.28;4937307;29;20035;-66
2022/09/22 05:30:33;;;;;;;4.78;2.50;;;;;;;5.87;69.43;99574.72;4938098;29;20098;-66
2022/09/22 05:33:00;;;;;;;3.30;1.95;;;;;;;5.87;69.87;99577.34;4936358;29;20048;-65
2022/09/22 05:35:26;;;;;;;2.28;1.50;;;;;;;5.89;70.09;99572.78;4936809;29;20508;-65
2022/09/22 05:37:53;;;;;;;3.40;1.63;;;;;;;5.91;69.87;99570.84;4936576;29;20099;-66
2022/09/22 05:40:22;;;;;;;2.42;1.55;;;;;;;5.92;69.94;99573.38;4935736;29;20059;-66
2022/09/22 05:42:50;;;;;;;1.27;1.00;;;;;;;5.95;70.04;99569.59;4936747;29;20043;-66
2022/09/22 05:45:18;;;;;;;2.35;1.50;;;;;;;6.00;70.11;99574.41;4935469;29;20055;-66
2022/09/22 05:47:45;;;;;;;1.50;1.20;;;;;;;6.04;69.61;99571.38;4934902;29;20044;-66
2022/09/22 05:50:13;;;;;;;2.20;1.67;;;;;;;6.04;69.39;99574.00;4935432;29;20051;-66
2022/09/22 05:52:40;;;;;;;1.30;1.20;;;;;;;6.02;69.15;99573.31;4935141;29;20055;-66
2022/09/22 05:55:07;;;;;;;1.52;1.30;;;;;;;6.04;69.57;99576.63;4936760;29;20055;-66
2022/09/22 05:57:34;;;;;;;2.50;1.45;;;;;;;6.10;69.83;99570.78;4936020;29;20038;-66
2022/09/22 06:00:01;;;;;;;1.58;1.25;;;;;;;6.15;69.66;99584.31;4935633;29;20047;-66
2022/09/22 06:02:37;;;;;;;2.30;1.75;;;;;;;6.20;69.26;99582.09;4936853;29;20070;-65
2022/09/22 06:05:04;;;;;;;1.98;1.60;;;;;;;6.23;68.76;99583.59;4936378;29;20051;-66
2022/09/22 06:07:30;;;;;;;1.85;1.40;;;;;;;6.27;69.30;99578.88;4935805;29;20040;-66
2022/09/22 06:09:57;;;;;;;2.25;1.88;;;;;;;6.31;68.80;99580.22;4936505;29;20043;-66
2022/09/22 06:12:23;;;;;;;2.20;1.90;;;;;;;6.32;68.76;99585.31;4934686;29;20063;-66
2022/09/22 06:14:50;;;;;;;3.00;1.52;;;;;;;6.37;68.71;99571.78;4936634;29;20407;-66
2022/09/22 06:17:16;;;;;;;2.88;1.63;;;;;;;6.42;68.55;99580.03;4934385;29;20043;-66
2022/09/22 06:19:45;;;;;;;2.30;1.90;;;;;;;6.46;68.46;99576.16;4936799;29;20056;-66
2022/09/22 06:22:11;;;;;;;2.08;1.73;;;;;;;6.54;68.65;99580.66;4919892;29;20075;-66
2022/09/22 06:24:37;;;;;;;1.60;1.40;;;;;;;6.60;68.41;99577.44;4935575;29;20047;-66
2022/09/22 06:27:04;;;;;;;2.10;1.70;;;;;;;6.61;68.04;99579.94;4934650;29;20051;-66
2022/09/22 06:29:30;;;;;;;2.75;1.42;;;;;;;6.64;68.11;99576.16;4936512;29;20083;-66
2022/09/22 06:31:57;;;;;;;1.50;1.20;;;;;;;6.70;68.39;99579.03;4936551;29;20048;-66
2022/09/22 06:34:26;;;;;;;1.25;1.15;;;;;;;6.79;68.30;99573.88;4936076;29;20392;-66
2022/09/22 06:36:55;;;;;;;1.27;1.10;;;;;;;6.85;68.01;99573.25;4935587;29;20051;-66
2022/09/22 06:39:22;;;;;;;3.03;1.40;;;;;;;6.91;67.88;99568.22;4918688;29;20082;-65
2022/09/22 06:41:49;;;;;;;1.40;1.30;;;;;;;6.99;67.79;99574.53;4934392;29;20047;-66
2022/09/22 06:44:15;;;;;;;1.50;1.40;;;;;;;7.07;68.12;99572.00;4935646;29;20103;-66
2022/09/22 06:46:42;;;;;;;1.40;1.30;;;;;;;7.16;67.77;99568.44;4935164;29;20051;-66
2022/09/22 06:49:08;;;;;;;2.75;1.38;;;;;;;7.24;67.51;99568.50;4935914;29;20440;-65
2022/09/22 06:51:35;;;;;;;2.97;1.38;;;;;;;7.32;67.72;99573.84;4935589;29;20420;-66
2022/09/22 06:54:04;;;;;;;1.10;1.00;;;;;;;7.43;67.52;99570.97;4935451;29;20297;-66
2022/09/22 06:56:34;;;;;;;1.75;1.40;;;;;;;7.54;67.26;99571.69;4934895;29;20051;-65
2022/09/22 06:59:11;;;;;;;1.45;1.35;;;;;;;7.63;67.02;99568.09;4935286;29;20435;-66
2022/09/22 07:01:39;;;;;;;1.77;1.52;;;;;;;7.73;66.96;99562.75;4939756;29;20043;-66
2022/09/22 07:04:06;;;;;;;1.30;1.20;;;;;;;7.84;67.09;99568.59;4939898;29;20403;-66
2022/09/22 07:06:36;;;;;;;1.63;1.20;;;;;;;7.96;66.93;99569.16;4938829;29;20047;-65
2022/09/22 07:09:04;;;;;;;0.90;0.90;;;;;;;8.09;67.12;99563.44;4939207;29;20043;-67
2022/09/22 07:11:30;;;;;;;1.45;1.35;;;;;;;8.19;66.71;99564.13;4939397;29;20059;-66
2022/09/22 07:14:02;;;;;;;1.20;1.10;;;;;;;8.28;66.45;99560.53;4939028;29;20051;-66
2022/09/22 07:16:29;;;;;;;1.27;1.17;;;;;;;8.40;66.41;99563.75;4938436;29;20047;-66
2022/09/22 07:18:57;;;;;;;1.60;1.50;;;;;;;8.49;66.17;99562.81;4938657;29;20114;-66
2022/09/22 07:21:35;;;;;;;4.00;1.60;;;;;;;8.60;66.39;99562.47;4938426;29;20098;-66
2022/09/22 07:24:03;;;;;;;2.08;1.35;;;;;;;8.74;66.29;99566.31;4937939;29;20044;-66
2022/09/22 07:26:32;;;;;;;1.77;1.20;;;;;;;8.87;66.11;99573.75;4938294;29;20071;-66
2022/09/22 07:29:01;;;;;;;1.40;1.30;;;;;;;8.98;66.16;99568.16;4938905;29;20044;-67
2022/09/22 07:31:30;;;;;;;1.20;1.10;;;;;;;9.11;65.90;99573.78;4937625;29;20048;-66
2022/09/22 07:34:00;;;;;;;0.98;0.98;;;;;;;9.23;65.87;99566.34;4938959;29;20050;-66
2022/09/22 07:36:29;;;;;;;1.10;1.00;;;;;;;9.36;65.44;99569.31;4937956;29;20054;-66
2022/09/22 07:39:01;;;;;;;1.00;0.95;;;;;;;9.49;65.38;99560.06;4937403;29;20039;-66
2022/09/22 07:41:30;;;;;;;1.80;1.60;;;;;;;9.60;65.01;99562.38;4937656;29;20056;-66
2022/09/22 07:45:11;;;;;;;3.33;2.13;;;;;;;9.71;65.02;99555.88;4938872;29;20048;-66
2022/09/22 07:46:48;;;;;;;2.72;2.15;;;;;;;9.84;65.09;99546.47;4937195;29;20058;-66
2022/09/22 07:49:16;;;;;;;2.30;2.10;;;;;;;9.96;64.81;99556.66;4938695;29;20075;-66
2022/09/22 07:51:42;;;;;;;2.13;1.98;;;;;;;10.08;64.89;99542.06;4937438;29;20472;-66
2022/09/22 07:54:09;;;;;;;2.15;1.90;;;;;;;10.22;64.73;99551.13;4940474;29;20519;-66
2022/09/22 07:56:42;;;;;;;2.10;1.90;;;;;;;10.35;64.41;99554.06;4942179;29;20051;-66
2022/09/22 07:59:11;;;;;;;2.05;1.40;;;;;;;10.49;64.57;99548.06;4944986;29;20047;-66
2022/09/22 08:01:43;;;;;;;1.45;1.10;;;;;;;10.61;64.55;99546.66;4943507;29;20043;-66
2022/09/22 08:04:15;;;;;;;1.30;1.20;;;;;;;10.76;64.15;99551.19;4943605;29;20064;-64
2022/09/22 08:06:43;;;;;;;2.67;2.20;;;;;;;10.89;63.90;99552.22;4943795;29;20122;-65
2022/09/22 08:09:10;;;;;;;3.35;2.90;;;;;;;11.01;63.73;99552.66;4942573;29;20035;-65
2022/09/22 08:11:37;;;;;;;2.60;2.40;;;;;;;11.13;63.02;99553.88;4940854;29;20456;-66
2022/09/22 08:14:07;;;;;;;2.38;2.00;;;;;;;11.24;63.02;99547.34;4942167;29;20048;-65
2022/09/22 08:16:35;;;;;;;2.15;1.98;;;;;;;11.37;62.96;99550.19;4941024;29;20075;-65
2022/09/22 08:19:09;;;;;;;2.00;1.77;;;;;;;11.51;62.93;99553.91;4942137;29;20047;-65
2022/09/22 08:21:36;;;;;;;2.33;1.77;;;;;;;11.68;62.89;99551.91;4941038;29;20070;-66
2022/09/22 08:24:15;;;;;;;3.10;2.38;;;;;;;11.80;62.10;99542.50;4937127;29;20050;-66
2022/09/22 08:26:42;;;;;;;1.77;1.65;;;;;;;11.90;61.95;99548.38;4938678;29;20052;-66
2022/09/22 08:29:13;;;;;;;2.65;1.90;;;;;;;12.03;61.58;99544.25;4938357;29;20050;-66
2022/09/22 08:31:41;;;;;;;1.90;1.80;;;;;;;12.17;61.30;99546.09;4940714;29;20051;-65
2022/09/22 08:34:08;;;;;;;1.77;1.55;;;;;;;12.31;61.35;99544.41;4937891;29;20082;-65
2022/09/22 08:36:36;;;;;;;2.97;2.00;;;;;;;12.42;60.62;99551.06;4938349;29;20074;-67
2022/09/22 08:39:03;;;;;;;1.80;1.70;;;;;;;12.52;60.83;99540.97;4940507;29;20040;-66
2022/09/22 08:41:42;;;;;;;2.05;1.85;;;;;;;12.64;59.92;99544.78;4939330;29;20428;-66
2022/09/22 08:44:09;;;;;;;2.25;2.05;;;;;;;12.76;59.78;99547.78;4936151;29;20047;-66
2022/09/22 08:46:39;;;;;;;2.10;1.88;;;;;;;12.82;59.53;99541.72;4935787;29;20393;-66
2022/09/22 08:52:34;;;;;;;1.63;1.52;;;;;;;13.05;58.67;99542.34;4936273;29;20110;-66
2022/09/22 08:55:02;;;;;;;2.30;1.30;;;;;;;13.18;58.73;99538.97;4937229;29;20079;-66
2022/09/22 08:57:46;;;;;;;2.33;1.17;;;;;;;13.33;58.27;99530.97;4936723;29;20172;-66
2022/09/22 09:00:16;;;;;;;2.33;1.65;;;;;;;13.45;58.05;99531.25;4942134;29;20047;-66
2022/09/22 09:03:07;;;;;;;1.58;1.30;;;;;;;13.55;57.91;99532.56;4949140;29;20521;-66
2022/09/22 09:05:54;;;;;;;1.30;1.20;;;;;;;13.66;57.44;99523.22;4952916;29;20051;-66
2022/09/22 09:08:49;;;;;;;1.20;1.10;;;;;;;13.79;57.07;99522.47;4952641;29;20079;-66
2022/09/22 09:11:34;;;;;;;2.08;1.33;;;;;;;13.95;56.50;99521.34;4952739;29;20048;-66
2022/09/22 09:14:01;;;;;;;1.25;1.08;;;;;;;14.09;56.24;99526.53;4952652;29;20059;-66
2022/09/22 09:16:37;;;;;;;1.02;1.02;;;;;;;14.19;55.18;99528.81;4946005;29;20091;-66
2022/09/22 09:19:13;;;;;;;2.00;1.00;;;;;;;14.29;55.24;99525.81;4942188;29;20054;-66
2022/09/22 09:21:46;;;;;;;1.10;1.00;;;;;;;14.40;54.73;99519.06;4941225;29;20056;-66
2022/09/22 09:24:45;;;;;;;1.50;1.38;;;;;;;14.52;54.55;99520.97;4933550;29;20047;-66
2022/09/22 09:27:39;;;;;;;1.25;1.00;;;;;;;14.60;52.95;99517.31;4939487;29;20050;-66
2022/09/22 09:30:20;;;;;;;1.00;0.90;;;;;;;14.66;53.05;99521.03;4941442;29;20098;-65
2022/09/22 09:32:55;;;;;;;1.20;1.13;;;;;;;14.68;52.57;99525.13;4925113;29;20056;-66
2022/09/22 09:35:44;;;;;;;1.00;0.90;;;;;;;14.78;52.06;99519.44;4923326;29;20047;-65
2022/09/22 09:38:14;;;;;;;0.90;0.90;;;;;;;14.85;52.25;99510.41;4921417;29;20044;-66
2022/09/22 09:40:43;;;;;;;1.38;1.27;;;;;;;14.92;52.03;99505.09;4921591;29;20135;-66
2022/09/22 09:43:10;;;;;;;1.08;0.98;;;;;;;14.99;51.83;99500.59;4916083;29;20052;-66
2022/09/22 09:46:11;;;;;;;1.17;1.10;;;;;;;15.10;51.24;99499.16;4915868;29;20060;-66
2022/09/22 09:49:04;;;;;;;1.27;1.17;;;;;;;15.23;50.89;99503.69;4915773;29;20079;-65
2022/09/22 09:51:36;;;;;;;1.33;0.93;;;;;;;15.30;50.94;99499.97;4916673;29;20107;-66
2022/09/22 09:54:08;;;;;;;1.35;0.80;;;;;;;15.41;50.64;99497.72;4916955;29;20044;-66
2022/09/22 09:57:06;;;;;;;1.38;0.90;;;;;;;15.49;48.83;99500.97;4916215;29;20572;-65
2022/09/22 10:02:26;;;;;;;1.73;0.98;;;;;;;15.63;48.74;99499.09;4915238;29;20047;-65
2022/09/22 10:05:03;;;;;;;0.80;0.80;;;;;;;15.75;48.72;99488.66;4915348;29;20072;-66
2022/09/22 10:07:40;;;;;;;0.90;0.90;;;;;;;15.86;47.97;99485.34;4921960;29;20051;-66
2022/09/22 10:10:22;;;;;;;0.98;0.80;;;;;;;15.90;47.54;99483.91;4924585;29;20042;-66
2022/09/22 10:12:49;;;;;;;1.55;0.82;;;;;;;15.93;47.25;99485.34;4923996;29;20043;-65
2022/09/22 10:15:24;;;;;;;1.77;0.73;;;;;;;16.02;47.76;99479.56;4922212;29;20120;-66
2022/09/22 10:17:51;;;;;;;1.13;0.80;;;;;;;16.05;46.41;99484.47;4933537;29;20059;-66
2022/09/22 10:20:27;;;;;;;0.85;0.77;;;;;;;16.03;44.06;99473.19;4934483;29;20048;-66
2022/09/22 10:22:55;;;;;;;1.30;0.93;;;;;;;16.08;45.42;99477.88;4931944;29;20043;-65
2022/09/22 10:25:30;;;;;;;1.25;0.80;;;;;;;16.14;44.69;99471.72;4935244;29;20496;-66
2022/09/22 10:28:03;;;;;;;1.50;0.70;;;;;;;16.25;45.50;99464.91;4927328;29;20508;-65
2022/09/22 10:30:35;;;;;;;1.27;0.80;;;;;;;16.25;44.56;99462.22;4923294;29;20044;-67
2022/09/22 10:33:19;;;;;;;1.05;0.82;;;;;;;16.32;44.49;99457.66;4929211;29;20503;-66
2022/09/22 10:36:02;;;;;;;1.60;0.90;;;;;;;16.34;43.60;99464.41;4934435;29;20111;-66
2022/09/22 10:38:41;;;;;;;1.52;0.70;;;;;;;16.47;43.96;99457.38;4935213;29;20537;-66
2022/09/22 10:41:13;;;;;;;1.30;0.88;;;;;;;16.55;42.22;99462.44;4935095;29;20055;-66
2022/09/22 10:43:49;;;;;;;0.77;0.77;;;;;;;16.58;40.77;99462.84;4935209;29;20116;-66
2022/09/22 10:46:31;;;;;;;1.38;0.85;;;;;;;16.60;41.60;99462.63;4934667;29;20052;-66
2022/09/22 10:49:22;;;;;;;1.17;0.50;;;;;;;16.70;42.36;99457.63;4935084;29;20035;-63
2022/09/22 10:52:03;;;;;;;0.50;0.50;;;;;;;16.84;41.82;99458.38;4933838;29;20052;-65
2022/09/22 10:54:42;;;;;;;1.98;0.60;;;;;;;16.91;41.20;99453.00;4935042;29;20047;-64
2022/09/22 10:57:37;;;;;;;0.60;0.60;;;;;;;16.96;41.45;99461.16;4935384;29;20055;-66
2022/09/22 11:00:16;;;;;;;1.50;0.68;;;;;;;16.94;39.49;99453.38;4936711;29;20099;-65
2022/09/22 11:02:56;;;;;;;0.65;0.63;;;;;;;16.98;39.93;99448.41;4926270;29;20051;-65
2022/09/22 11:15:01;;;;;;;0.68;0.68;;;;;;;17.38;40.20;99440.84;4923428;29;20048;-67
2022/09/22 11:17:52;;;;;;;0.75;0.60;;;;;;;17.44;40.30;99433.81;4926795;29;20052;-66
2022/09/22 11:20:37;;;;;;;0.70;0.70;;;;;;;17.50;39.29;99430.22;4924918;29;20127;-65
2022/09/22 11:23:21;;;;;;;0.95;0.70;;;;;;;17.47;38.77;99430.66;4930892;29;20047;-66
2022/09/22 11:26:12;;;;;;;1.50;0.90;;;;;;;17.40;37.67;99430.75;4936944;29;20068;-66
2022/09/22 11:28:49;;;;;;;0.73;0.65;;;;;;;17.41;38.87;99427.03;4942571;29;20047;-65
2022/09/22 11:31:58;;;;;;;1.50;0.93;;;;;;;17.46;37.49;99411.13;4938964;29;20499;-66
2022/09/22 11:34:56;;;;;;;0.68;0.68;;;;;;;17.50;37.65;99415.00;4922028;29;20044;-68
2022/09/22 11:38:21;;;;;;;1.00;0.50;;;;;;;17.57;36.87;99417.63;4921413;29;20103;-65
2022/09/22 11:41:01;;;;;;;0.68;0.45;;;;;;;17.78;38.72;99413.69;4894559;29;20056;-64
2022/09/22 11:43:54;;;;;;;1.60;0.73;;;;;;;17.98;38.54;99413.44;4929343;29;20110;-66
2022/09/22 11:47:02;;;;;;;0.68;0.68;;;;;;;18.05;36.57;99408.84;4931672;29;20051;-66
2022/09/22 11:49:59;;;;;;;0.93;0.80;;;;;;;18.04;37.54;99412.53;4919030;29;20066;-65
2022/09/22 11:52:52;;;;;;;1.50;0.60;;;;;;;18.09;37.36;99401.19;4902031;29;20121;-65
2022/09/22 11:55:45;;;;;;;0.90;0.77;;;;;;;18.14;37.25;99402.13;4917847;29;20135;-65
2022/09/22 11:58:20;;;;;;;0.80;0.70;;;;;;;18.17;37.62;99399.00;4917277;29;20062;-66
2022/09/22 12:00:55;;;;;;;0.85;0.80;;;;;;;18.15;35.99;99390.38;4917404;29;20048;-66
2022/09/22 12:03:31;;;;;;;0.95;0.80;;;;;;;18.18;37.23;99397.94;4918935;29;20103;-66
2022/09/22 12:06:04;;;;;;;1.50;0.73;;;;;;;18.30;37.08;99392.63;4917593;29;20044;-67
2022/09/22 12:08:37;;;;;;;1.00;0.98;;;;;;;18.36;36.94;99394.38;4918660;29;20094;-67
2022/09/22 12:11:06;;;;;;;1.13;0.82;;;;;;;18.45;37.04;99384.16;4917315;29;20389;-66
2022/09/22 12:13:36;;;;;;;1.13;0.82;;;;;;;18.47;36.34;99384.75;4901947;29;20500;-66
2022/09/22 12:16:06;;;;;;;0.77;0.70;;;;;;;18.55;36.61;99385.25;4917615;29;20040;-66
2022/09/22 12:18:59;;;;;;;0.70;0.70;;;;;;;18.62;34.94;99376.31;4917581;29;20058;-66
2022/09/22 12:21:49;;;;;;;1.67;0.90;;;;;;;18.60;35.63;99373.84;4918549;29;20080;-66